Aviation Digital Data Service (ADDS)

Output produced by METARs form (1640 UTC 30 October 2014)
found at http://aviationweather.gov/adds/metars/
 
KBDL 301456Z 3015/3118 32006KT P6SM SCT250 
     FM310600 00000KT P6SM SCT060 
     FM311200 VRB03KT P6SM BKN025 
     FM311400 VRB03KT P6SM BKN050